sensor_id;sensor_type;location;lat;lon;timestamp;pressure;altitude;pressure_sealevel;temperature;humidity
7157;BME280;3620;49.862;8.758;2023-02-26T00:01:38;98959.38;;;3.35;64.66
7157;BME280;3620;49.862;8.758;2023-02-26T00:04:06;98964.69;;;3.30;64.79
7157;BME280;3620;49.862;8.758;2023-02-26T00:06:35;98968.03;;;3.35;64.49
7157;BME280;3620;49.862;8.758;2023-02-26T00:09:04;98967.69;;;3.11;64.07
7157;BME280;3620;49.862;8.758;2023-02-26T00:11:31;98964.88;;;3.21;64.19
7157;BME280;3620;49.862;8.758;2023-02-26T00:13:59;98965.72;;;3.22;64.81
7157;BME280;3620;49.862;8.758;2023-02-26T00:16:27;98968.81;;;2.97;65.06
7157;BME280;3620;49.862;8.758;2023-02-26T00:18:54;98974.47;;;3.16;65.07
7157;BME280;3620;49.862;8.758;2023-02-26T00:21:22;98969.31;;;3.15;65.58
7157;BME280;3620;49.862;8.758;2023-02-26T00:23:49;98976.00;;;3.28;65.18
7157;BME280;3620;49.862;8.758;2023-02-26T00:26:17;98969.84;;;3.32;64.73
7157;BME280;3620;49.862;8.758;2023-02-26T00:28:44;98967.69;;;3.11;65.92
7157;BME280;3620;49.862;8.758;2023-02-26T00:31:13;98971.97;;;3.12;66.07
7157;BME280;3620;49.862;8.758;2023-02-26T00:33:41;98967.50;;;3.20;65.28
7157;BME280;3620;49.862;8.758;2023-02-26T00:36:17;98966.47;;;3.27;65.33
7157;BME280;3620;49.862;8.758;2023-02-26T00:38:50;98967.91;;;3.41;65.02
7157;BME280;3620;49.862;8.758;2023-02-26T00:41:22;98968.63;;;3.48;65.55
7157;BME280;3620;49.862;8.758;2023-02-26T00:43:49;98969.00;;;3.30;65.25
7157;BME280;3620;49.862;8.758;2023-02-26T00:46:21;98960.88;;;3.45;65.46
7157;BME280;3620;49.862;8.758;2023-02-26T00:48:58;98958.28;;;3.45;65.61
7157;BME280;3620;49.862;8.758;2023-02-26T00:51:30;98971.09;;;3.54;64.77
7157;BME280;3620;49.862;8.758;2023-02-26T00:54:03;98974.59;;;3.53;65.59
7157;BME280;3620;49.862;8.758;2023-02-26T00:56:32;98975.94;;;3.69;66.35
7157;BME280;3620;49.862;8.758;2023-02-26T00:58:58;98976.66;;;3.77;66.99
7157;BME280;3620;49.862;8.758;2023-02-26T01:01:25;98988.56;;;3.87;66.77
7157;BME280;3620;49.862;8.758;2023-02-26T01:03:52;98982.44;;;3.90;66.96
7157;BME280;3620;49.862;8.758;2023-02-26T01:06:20;98991.06;;;3.92;67.57
7157;BME280;3620;49.862;8.758;2023-02-26T01:08:53;98994.56;;;3.91;67.20
7157;BME280;3620;49.862;8.758;2023-02-26T01:11:20;98982.00;;;4.08;67.06
7157;BME280;3620;49.862;8.758;2023-02-26T01:13:49;98985.44;;;4.10;67.93
7157;BME280;3620;49.862;8.758;2023-02-26T01:16:20;98989.38;;;3.89;67.32
7157;BME280;3620;49.862;8.758;2023-02-26T01:18:50;98983.25;;;3.92;67.09
7157;BME280;3620;49.862;8.758;2023-02-26T01:21:22;98988.19;;;4.02;66.61
7157;BME280;3620;49.862;8.758;2023-02-26T01:23:51;98986.00;;;3.86;66.33
7157;BME280;3620;49.862;8.758;2023-02-26T01:26:21;98993.66;;;3.52;66.60
7157;BME280;3620;49.862;8.758;2023-02-26T01:28:50;98990.63;;;3.32;67.03
7157;BME280;3620;49.862;8.758;2023-02-26T01:31:29;98991.63;;;3.25;66.69
7157;BME280;3620;49.862;8.758;2023-02-26T01:34:02;98986.69;;;3.54;66.40
7157;BME280;3620;49.862;8.758;2023-02-26T01:36:33;98985.91;;;3.50;66.60
7157;BME280;3620;49.862;8.758;2023-02-26T01:39:07;98983.31;;;3.49;67.01
7157;BME280;3620;49.862;8.758;2023-02-26T01:41:42;98988.44;;;3.53;66.39
7157;BME280;3620;49.862;8.758;2023-02-26T01:44:21;98992.75;;;3.13;67.23
7157;BME280;3620;49.862;8.758;2023-02-26T01:46:59;98991.53;;;3.31;67.13
7157;BME280;3620;49.862;8.758;2023-02-26T01:49:28;98998.41;;;3.32;67.62
7157;BME280;3620;49.862;8.758;2023-02-26T01:51:57;98995.13;;;3.24;67.30
7157;BME280;3620;49.862;8.758;2023-02-26T01:54:28;98997.56;;;3.31;67.83
7157;BME280;3620;49.862;8.758;2023-02-26T01:56:59;98995.31;;;3.15;67.90
7157;BME280;3620;49.862;8.758;2023-02-26T01:59:30;99007.03;;;3.34;68.12
7157;BME280;3620;49.862;8.758;2023-02-26T02:01:58;99003.44;;;3.41;67.88
7157;BME280;3620;49.862;8.758;2023-02-26T02:04:26;99004.44;;;3.35;66.74
7157;BME280;3620;49.862;8.758;2023-02-26T02:06:53;99001.84;;;3.34;66.94
7157;BME280;3620;49.862;8.758;2023-02-26T02:09:20;99006.31;;;3.27;67.53
7157;BME280;3620;49.862;8.758;2023-02-26T02:11:56;99002.78;;;3.30;68.30
7157;BME280;3620;49.862;8.758;2023-02-26T02:14:33;99009.47;;;3.43;68.03
7157;BME280;3620;49.862;8.758;2023-02-26T02:17:10;99009.00;;;3.23;67.67
7157;BME280;3620;49.862;8.758;2023-02-26T02:19:52;99012.91;;;3.43;67.63
7157;BME280;3620;49.862;8.758;2023-02-26T02:22:34;99019.03;;;3.41;67.41
7157;BME280;3620;49.862;8.758;2023-02-26T02:25:13;99018.34;;;2.88;68.76
7157;BME280;3620;49.862;8.758;2023-02-26T02:27:49;99021.50;;;3.03;68.74
7157;BME280;3620;49.862;8.758;2023-02-26T02:30:30;99016.28;;;3.06;68.77
7157;BME280;3620;49.862;8.758;2023-02-26T02:33:04;99016.44;;;2.96;69.44
7157;BME280;3620;49.862;8.758;2023-02-26T02:35:39;99022.78;;;2.82;70.61
7157;BME280;3620;49.862;8.758;2023-02-26T02:38:09;99025.22;;;2.89;70.13
7157;BME280;3620;49.862;8.758;2023-02-26T02:40:42;99026.94;;;2.90;70.23
7157;BME280;3620;49.862;8.758;2023-02-26T02:43:13;99029.19;;;3.10;69.90
7157;BME280;3620;49.862;8.758;2023-02-26T02:45:44;99039.69;;;3.04;70.23
7157;BME280;3620;49.862;8.758;2023-02-26T02:48:17;99028.88;;;2.79;71.68
7157;BME280;3620;49.862;8.758;2023-02-26T02:50:48;99028.44;;;3.04;70.84
7157;BME280;3620;49.862;8.758;2023-02-26T02:53:18;99026.69;;;3.04;71.25
7157;BME280;3620;49.862;8.758;2023-02-26T02:55:49;99026.72;;;3.03;71.33
7157;BME280;3620;49.862;8.758;2023-02-26T02:58:20;99026.72;;;3.03;72.04
7157;BME280;3620;49.862;8.758;2023-02-26T03:00:50;99032.44;;;3.21;71.79
7157;BME280;3620;49.862;8.758;2023-02-26T03:03:23;99034.97;;;3.23;71.11
7157;BME280;3620;49.862;8.758;2023-02-26T03:05:53;99035.63;;;2.89;72.10
7157;BME280;3620;49.862;8.758;2023-02-26T03:08:21;99029.41;;;2.98;71.74
7157;BME280;3620;49.862;8.758;2023-02-26T03:10:49;99033.22;;;3.25;71.44
7157;BME280;3620;49.862;8.758;2023-02-26T03:13:17;99034.75;;;3.35;70.99
7157;BME280;3620;49.862;8.758;2023-02-26T03:15:55;99033.59;;;3.07;71.16
7157;BME280;3620;49.862;8.758;2023-02-26T03:18:36;99032.72;;;3.06;70.99
7157;BME280;3620;49.862;8.758;2023-02-26T03:21:11;99040.25;;;2.72;71.45
7157;BME280;3620;49.862;8.758;2023-02-26T03:23:44;99042.84;;;2.72;70.77
7157;BME280;3620;49.862;8.758;2023-02-26T03:26:18;99042.47;;;2.93;70.70
7157;BME280;3620;49.862;8.758;2023-02-26T03:28:50;99040.81;;;2.89;71.17
7157;BME280;3620;49.862;8.758;2023-02-26T03:31:25;99049.44;;;2.91;70.81
7157;BME280;3620;49.862;8.758;2023-02-26T03:33:57;99048.03;;;2.72;70.97
7157;BME280;3620;49.862;8.758;2023-02-26T03:36:28;99049.81;;;2.70;70.98
7157;BME280;3620;49.862;8.758;2023-02-26T03:38:59;99057.50;;;2.76;71.10
7157;BME280;3620;49.862;8.758;2023-02-26T03:41:30;99069.09;;;2.56;71.59
7157;BME280;3620;49.862;8.758;2023-02-26T03:44:02;99068.66;;;2.81;71.06
7157;BME280;3620;49.862;8.758;2023-02-26T03:46:34;99065.94;;;2.87;71.13
7157;BME280;3620;49.862;8.758;2023-02-26T03:49:09;99067.09;;;2.71;72.03
7157;BME280;3620;49.862;8.758;2023-02-26T03:51:38;99073.06;;;2.76;71.19
7157;BME280;3620;49.862;8.758;2023-02-26T03:54:09;99086.34;;;2.58;71.42
7157;BME280;3620;49.862;8.758;2023-02-26T03:56:41;99088.00;;;2.62;72.06
7157;BME280;3620;49.862;8.758;2023-02-26T03:59:09;99091.50;;;2.61;72.18
7157;BME280;3620;49.862;8.758;2023-02-26T04:01:40;99096.47;;;2.73;71.96
7157;BME280;3620;49.862;8.758;2023-02-26T04:04:15;99091.13;;;2.82;71.81
7157;BME280;3620;49.862;8.758;2023-02-26T04:06:44;99096.72;;;2.58;72.17
7157;BME280;3620;49.862;8.758;2023-02-26T04:09:11;99100.78;;;2.21;73.88
7157;BME280;3620;49.862;8.758;2023-02-26T04:11:38;99099.50;;;1.88;76.14
7157;BME280;3620;49.862;8.758;2023-02-26T04:14:05;99101.38;;;1.76;76.55
7157;BME280;3620;49.862;8.758;2023-02-26T04:16:32;99112.47;;;1.87;76.80
7157;BME280;3620;49.862;8.758;2023-02-26T04:18:58;99108.97;;;1.89;77.00
7157;BME280;3620;49.862;8.758;2023-02-26T04:21:26;99118.25;;;2.07;76.81
7157;BME280;3620;49.862;8.758;2023-02-26T04:23:52;99113.25;;;1.95;76.09
7157;BME280;3620;49.862;8.758;2023-02-26T04:26:19;99125.38;;;1.93;76.32
7157;BME280;3620;49.862;8.758;2023-02-26T04:28:45;99120.38;;;1.78;77.90
7157;BME280;3620;49.862;8.758;2023-02-26T04:31:12;99120.66;;;1.54;78.76
7157;BME280;3620;49.862;8.758;2023-02-26T04:33:39;99125.56;;;1.78;78.82
7157;BME280;3620;49.862;8.758;2023-02-26T04:36:07;99123.75;;;1.83;78.13
7157;BME280;3620;49.862;8.758;2023-02-26T04:38:35;99128.94;;;1.83;77.54
7157;BME280;3620;49.862;8.758;2023-02-26T04:41:01;99131.69;;;1.69;77.90
7157;BME280;3620;49.862;8.758;2023-02-26T04:43:28;99134.44;;;1.56;78.48
7157;BME280;3620;49.862;8.758;2023-02-26T04:45:54;99131.75;;;1.65;78.71
7157;BME280;3620;49.862;8.758;2023-02-26T04:48:21;99153.66;;;1.36;79.92
7157;BME280;3620;49.862;8.758;2023-02-26T04:50:48;99151.81;;;1.47;79.70
7157;BME280;3620;49.862;8.758;2023-02-26T04:53:14;99142.38;;;1.40;80.30
7157;BME280;3620;49.862;8.758;2023-02-26T04:55:42;99148.31;;;1.52;79.94
7157;BME280;3620;49.862;8.758;2023-02-26T04:58:09;99143.22;;;1.45;79.73
7157;BME280;3620;49.862;8.758;2023-02-26T05:00:35;99154.25;;;1.61;78.97
7157;BME280;3620;49.862;8.758;2023-02-26T05:03:02;99143.00;;;1.64;78.93
7157;BME280;3620;49.862;8.758;2023-02-26T05:05:28;99154.47;;;1.43;79.57
7157;BME280;3620;49.862;8.758;2023-02-26T05:07:55;99155.44;;;1.31;80.49
7157;BME280;3620;49.862;8.758;2023-02-26T05:10:22;99156.13;;;1.50;80.21
7157;BME280;3620;49.862;8.758;2023-02-26T05:12:51;99157.16;;;1.35;79.96
7157;BME280;3620;49.862;8.758;2023-02-26T05:15:17;99165.72;;;1.40;80.44
7157;BME280;3620;49.862;8.758;2023-02-26T05:17:44;99160.59;;;1.34;79.88
7157;BME280;3620;49.862;8.758;2023-02-26T05:20:11;99169.28;;;1.27;80.82
7157;BME280;3620;49.862;8.758;2023-02-26T05:22:38;99166.81;;;1.17;81.41
7157;BME280;3620;49.862;8.758;2023-02-26T05:25:05;99166.59;;;1.38;80.75
7157;BME280;3620;49.862;8.758;2023-02-26T05:27:32;99168.38;;;1.34;80.30
7157;BME280;3620;49.862;8.758;2023-02-26T05:30:00;99171.09;;;1.19;81.29
7157;BME280;3620;49.862;8.758;2023-02-26T05:32:27;99171.94;;;1.23;81.14
7157;BME280;3620;49.862;8.758;2023-02-26T05:34:54;99168.50;;;1.21;80.96
7157;BME280;3620;49.862;8.758;2023-02-26T05:37:20;99168.50;;;1.21;81.45
7157;BME280;3620;49.862;8.758;2023-02-26T05:39:47;99184.88;;;1.23;81.63
7157;BME280;3620;49.862;8.758;2023-02-26T05:42:14;99180.53;;;1.25;81.40
7157;BME280;3620;49.862;8.758;2023-02-26T05:44:40;99188.31;;;1.25;81.54
7157;BME280;3620;49.862;8.758;2023-02-26T05:47:08;99189.22;;;1.18;82.15
7157;BME280;3620;49.862;8.758;2023-02-26T05:49:35;99200.50;;;1.12;82.42
7157;BME280;3620;49.862;8.758;2023-02-26T05:52:01;99195.47;;;0.94;83.70
7157;BME280;3620;49.862;8.758;2023-02-26T05:54:28;99186.75;;;1.07;83.35
7157;BME280;3620;49.862;8.758;2023-02-26T05:56:54;99195.34;;;1.12;82.84
7157;BME280;3620;49.862;8.758;2023-02-26T05:59:21;99202.31;;;1.04;83.38
7157;BME280;3620;49.862;8.758;2023-02-26T06:01:48;99206.53;;;1.17;82.91
7157;BME280;3620;49.862;8.758;2023-02-26T06:04:16;99206.44;;;1.26;82.40
7157;BME280;3620;49.862;8.758;2023-02-26T06:06:42;99211.66;;;1.22;82.37
7157;BME280;3620;49.862;8.758;2023-02-26T06:09:09;99215.91;;;1.27;82.52
7157;BME280;3620;49.862;8.758;2023-02-26T06:11:35;99215.91;;;1.27;82.31
7157;BME280;3620;49.862;8.758;2023-02-26T06:14:03;99226.47;;;1.06;83.23
7157;BME280;3620;49.862;8.758;2023-02-26T06:16:30;99228.16;;;1.10;83.35
7157;BME280;3620;49.862;8.758;2023-02-26T06:18:57;99232.41;;;1.19;82.89
7157;BME280;3620;49.862;8.758;2023-02-26T06:21:25;99235.03;;;1.11;82.76
7157;BME280;3620;49.862;8.758;2023-02-26T06:23:51;99246.47;;;0.85;83.54
7157;BME280;3620;49.862;8.758;2023-02-26T06:26:18;99252.31;;;1.09;82.58
7157;BME280;3620;49.862;8.758;2023-02-26T06:28:45;99253.03;;;1.29;82.21
7157;BME280;3620;49.862;8.758;2023-02-26T06:31:11;99258.16;;;1.38;81.65
7157;BME280;3620;49.862;8.758;2023-02-26T06:33:38;99264.28;;;1.28;82.32
7157;BME280;3620;49.862;8.758;2023-02-26T06:36:06;99259.06;;;1.31;81.89
7157;BME280;3620;49.862;8.758;2023-02-26T06:38:34;99268.69;;;1.16;81.95
7157;BME280;3620;49.862;8.758;2023-02-26T06:41:00;99277.28;;;1.18;82.26
7157;BME280;3620;49.862;8.758;2023-02-26T06:43:27;99281.59;;;1.23;82.38
7157;BME280;3620;49.862;8.758;2023-02-26T06:45:56;99268.41;;;1.49;81.42
7157;BME280;3620;49.862;8.758;2023-02-26T06:48:23;99279.75;;;1.37;81.29
7157;BME280;3620;49.862;8.758;2023-02-26T06:50:50;99290.91;;;1.42;81.15
7157;BME280;3620;49.862;8.758;2023-02-26T06:53:16;99297.13;;;1.23;81.62
7157;BME280;3620;49.862;8.758;2023-02-26T06:55:45;99298.81;;;1.30;82.43
7157;BME280;3620;49.862;8.758;2023-02-26T06:58:12;99310.78;;;1.43;81.35
7157;BME280;3620;49.862;8.758;2023-02-26T07:00:39;99310.91;;;1.28;82.31
7157;BME280;3620;49.862;8.758;2023-02-26T07:03:06;99321.28;;;1.25;83.36
7157;BME280;3620;49.862;8.758;2023-02-26T07:05:32;99317.78;;;1.32;83.06
7157;BME280;3620;49.862;8.758;2023-02-26T07:07:59;99318.59;;;1.42;82.81
7157;BME280;3620;49.862;8.758;2023-02-26T07:10:26;99312.44;;;1.54;81.91
7157;BME280;3620;49.862;8.758;2023-02-26T07:12:53;99319.25;;;1.67;81.51
7157;BME280;3620;49.862;8.758;2023-02-26T07:15:20;99320.94;;;1.71;80.98
7157;BME280;3620;49.862;8.758;2023-02-26T07:17:46;99323.59;;;1.63;80.91
7157;BME280;3620;49.862;8.758;2023-02-26T07:20:13;99329.59;;;1.70;80.41
7157;BME280;3620;49.862;8.758;2023-02-26T07:22:40;99327.81;;;1.78;80.27
7157;BME280;3620;49.862;8.758;2023-02-26T07:25:07;99327.88;;;1.69;80.91
7157;BME280;3620;49.862;8.758;2023-02-26T07:27:33;99331.41;;;1.56;81.92
7157;BME280;3620;49.862;8.758;2023-02-26T07:30:02;99334.66;;;1.80;80.34
7157;BME280;3620;49.862;8.758;2023-02-26T07:32:29;99335.38;;;1.99;79.45
7157;BME280;3620;49.862;8.758;2023-02-26T07:34:56;99338.03;;;1.93;79.87
7157;BME280;3620;49.862;8.758;2023-02-26T07:37:25;99341.41;;;1.98;79.52
7157;BME280;3620;49.862;8.758;2023-02-26T07:39:51;99348.28;;;2.05;79.53
7157;BME280;3620;49.862;8.758;2023-02-26T07:42:17;99348.28;;;2.05;78.63
7157;BME280;3620;49.862;8.758;2023-02-26T07:44:44;99351.84;;;1.95;79.46
7157;BME280;3620;49.862;8.758;2023-02-26T07:47:12;99348.22;;;2.09;78.40
7157;BME280;3620;49.862;8.758;2023-02-26T07:49:39;99367.84;;;2.36;77.55
7157;BME280;3620;49.862;8.758;2023-02-26T07:52:05;99363.69;;;2.20;77.68
7157;BME280;3620;49.862;8.758;2023-02-26T07:54:32;99372.59;;;1.95;78.32
7157;BME280;3620;49.862;8.758;2023-02-26T07:57:00;99376.59;;;2.24;78.56
7157;BME280;3620;49.862;8.758;2023-02-26T07:59:27;99373.94;;;2.35;77.72
7157;BME280;3620;49.862;8.758;2023-02-26T08:01:53;99372.09;;;2.43;77.26
7157;BME280;3620;49.862;8.758;2023-02-26T08:04:22;99379.31;;;2.14;77.82
7157;BME280;3620;49.862;8.758;2023-02-26T08:06:49;99387.81;;;2.31;77.49
7157;BME280;3620;49.862;8.758;2023-02-26T08:09:15;99377.53;;;2.22;77.11
7157;BME280;3620;49.862;8.758;2023-02-26T08:11:42;99390.38;;;2.34;76.78
7157;BME280;3620;49.862;8.758;2023-02-26T08:14:10;99385.09;;;2.43;76.26
7157;BME280;3620;49.862;8.758;2023-02-26T08:16:36;99392.97;;;2.34;76.22
7157;BME280;3620;49.862;8.758;2023-02-26T08:19:03;99396.56;;;2.18;75.85
7157;BME280;3620;49.862;8.758;2023-02-26T08:21:31;99398.94;;;2.44;76.84
7157;BME280;3620;49.862;8.758;2023-02-26T08:23:58;99399.03;;;2.32;76.06
7157;BME280;3620;49.862;8.758;2023-02-26T08:26:25;99398.00;;;2.49;75.16
7157;BME280;3620;49.862;8.758;2023-02-26T08:28:51;99409.25;;;2.47;74.89
7157;BME280;3620;49.862;8.758;2023-02-26T08:31:18;99412.38;;;2.79;74.02
7157;BME280;3620;49.862;8.758;2023-02-26T08:33:45;99409.41;;;3.09;74.33
7157;BME280;3620;49.862;8.758;2023-02-26T08:36:12;99421.81;;;2.84;72.91
7157;BME280;3620;49.862;8.758;2023-02-26T08:38:40;99414.41;;;3.26;72.13
7157;BME280;3620;49.862;8.758;2023-02-26T08:41:06;99427.34;;;3.29;70.99
7157;BME280;3620;49.862;8.758;2023-02-26T08:43:33;99424.69;;;3.32;71.29
7157;BME280;3620;49.862;8.758;2023-02-26T08:46:00;99433.34;;;3.34;70.23
7157;BME280;3620;49.862;8.758;2023-02-26T08:48:27;99443.72;;;3.34;70.37
7157;BME280;3620;49.862;8.758;2023-02-26T08:50:54;99443.41;;;3.58;72.01
7157;BME280;3620;49.862;8.758;2023-02-26T08:53:20;99441.84;;;3.45;70.26
7157;BME280;3620;49.862;8.758;2023-02-26T08:55:48;99445.91;;;3.65;69.20
7157;BME280;3620;49.862;8.758;2023-02-26T08:58:15;99453.66;;;3.67;68.15
7157;BME280;3620;49.862;8.758;2023-02-26T09:00:42;99452.06;;;3.60;67.18
7157;BME280;3620;49.862;8.758;2023-02-26T09:03:09;99459.09;;;3.52;68.19
7157;BME280;3620;49.862;8.758;2023-02-26T09:05:36;99453.66;;;3.67;68.15
7157;BME280;3620;49.862;8.758;2023-02-26T09:08:03;99458.88;;;3.67;67.75
7157;BME280;3620;49.862;8.758;2023-02-26T09:10:30;99466.59;;;3.75;66.23
7157;BME280;3620;49.862;8.758;2023-02-26T09:12:58;99463.47;;;3.50;68.52
7157;BME280;3620;49.862;8.758;2023-02-26T09:15:25;99462.31;;;3.69;66.35
7157;BME280;3620;49.862;8.758;2023-02-26T09:17:51;99467.59;;;3.63;66.52
7157;BME280;3620;49.862;8.758;2023-02-26T09:20:18;99467.47;;;3.72;67.41
7157;BME280;3620;49.862;8.758;2023-02-26T09:22:45;99480.25;;;3.25;66.83
7157;BME280;3620;49.862;8.758;2023-02-26T09:25:12;99474.69;;;3.52;66.80
7157;BME280;3620;49.862;8.758;2023-02-26T09:27:39;99483.13;;;3.69;65.92
7157;BME280;3620;49.862;8.758;2023-02-26T09:30:09;99484.41;;;4.00;66.06
7157;BME280;3620;49.862;8.758;2023-02-26T09:32:35;99480.94;;;4.01;66.59
7157;BME280;3620;49.862;8.758;2023-02-26T09:35:02;99484.19;;;4.15;66.83
7157;BME280;3620;49.862;8.758;2023-02-26T09:37:30;99495.47;;;4.14;64.99
7157;BME280;3620;49.862;8.758;2023-02-26T09:39:56;99494.47;;;4.24;66.26
7157;BME280;3620;49.862;8.758;2023-02-26T09:42:34;99490.28;;;4.13;65.91
7157;BME280;3620;49.862;8.758;2023-02-26T09:45:11;99500.25;;;4.40;65.56
7157;BME280;3620;49.862;8.758;2023-02-26T09:47:42;99493.22;;;4.47;65.14
7157;BME280;3620;49.862;8.758;2023-02-26T09:50:15;99501.72;;;4.58;63.71
7157;BME280;3620;49.862;8.758;2023-02-26T09:52:47;99504.41;;;4.52;64.60
7157;BME280;3620;49.862;8.758;2023-02-26T09:55:25;99512.44;;;4.39;64.57
7157;BME280;3620;49.862;8.758;2023-02-26T09:57:56;99506.16;;;4.50;63.52
7157;BME280;3620;49.862;8.758;2023-02-26T10:00:33;99511.81;;;4.22;63.56
7157;BME280;3620;49.862;8.758;2023-02-26T10:03:12;99511.69;;;4.31;63.67
7157;BME280;3620;49.862;8.758;2023-02-26T10:05:47;99520.09;;;4.49;64.37
7157;BME280;3620;49.862;8.758;2023-02-26T10:08:19;99518.25;;;4.54;63.06
7157;BME280;3620;49.862;8.758;2023-02-26T10:10:57;99517.50;;;4.49;63.27
7157;BME280;3620;49.862;8.758;2023-02-26T10:13:33;99513.41;;;4.84;63.41
7157;BME280;3620;49.862;8.758;2023-02-26T10:16:07;99517.50;;;4.47;63.84
7157;BME280;3620;49.862;8.758;2023-02-26T10:18:39;99527.75;;;4.58;62.87
7157;BME280;3620;49.862;8.758;2023-02-26T10:21:12;99521.34;;;4.77;63.35
7157;BME280;3620;49.862;8.758;2023-02-26T10:23:41;99536.19;;;4.72;63.77
7157;BME280;3620;49.862;8.758;2023-02-26T10:26:14;99525.16;;;4.58;61.69
7157;BME280;3620;49.862;8.758;2023-02-26T10:28:52;99537.28;;;4.59;62.57
7157;BME280;3620;49.862;8.758;2023-02-26T10:31:26;99533.03;;;4.53;61.92
7157;BME280;3620;49.862;8.758;2023-02-26T10:34:03;99533.88;;;4.54;61.48
7157;BME280;3620;49.862;8.758;2023-02-26T10:36:39;99532.94;;;4.59;61.68
7157;BME280;3620;49.862;8.758;2023-02-26T10:39:20;99526.38;;;4.86;61.88
7157;BME280;3620;49.862;8.758;2023-02-26T10:41:50;99530.94;;;5.22;61.28
7157;BME280;3620;49.862;8.758;2023-02-26T10:44:23;99534.94;;;5.40;60.04
7157;BME280;3620;49.862;8.758;2023-02-26T10:46:58;99530.56;;;5.40;59.58
7157;BME280;3620;49.862;8.758;2023-02-26T10:49:50;99532.84;;;5.57;59.05
7157;BME280;3620;49.862;8.758;2023-02-26T10:52:20;99536.66;;;5.80;58.76
7157;BME280;3620;49.862;8.758;2023-02-26T10:54:59;99537.06;;;5.62;58.69
7157;BME280;3620;49.862;8.758;2023-02-26T10:57:30;99542.97;;;6.12;58.72
7157;BME280;3620;49.862;8.758;2023-02-26T10:59:58;99533.31;;;5.75;55.91
7157;BME280;3620;49.862;8.758;2023-02-26T11:02:38;99543.56;;;5.84;57.55
7157;BME280;3620;49.862;8.758;2023-02-26T11:05:07;99544.50;;;6.22;57.80
7157;BME280;3620;49.862;8.758;2023-02-26T11:07:39;99530.69;;;6.17;57.21
7157;BME280;3620;49.862;8.758;2023-02-26T11:10:13;99540.75;;;6.32;56.08
7157;BME280;3620;49.862;8.758;2023-02-26T11:12:41;99540.56;;;6.41;57.10
7157;BME280;3620;49.862;8.758;2023-02-26T11:15:12;99541.16;;;6.52;58.00
7157;BME280;3620;49.862;8.758;2023-02-26T11:17:41;99540.09;;;6.94;56.86
7157;BME280;3620;49.862;8.758;2023-02-26T11:20:16;99542.97;;;7.16;56.92
7157;BME280;3620;49.862;8.758;2023-02-26T11:22:46;99532.94;;;7.01;54.37
7157;BME280;3620;49.862;8.758;2023-02-26T11:25:16;99539.44;;;6.86;55.75
7157;BME280;3620;49.862;8.758;2023-02-26T11:27:49;99550.41;;;6.65;55.06
7157;BME280;3620;49.862;8.758;2023-02-26T11:30:26;99552.97;;;6.68;54.79
7157;BME280;3620;49.862;8.758;2023-02-26T11:32:57;99565.69;;;6.45;55.67
7157;BME280;3620;49.862;8.758;2023-02-26T11:35:24;99553.66;;;6.39;54.97
7157;BME280;3620;49.862;8.758;2023-02-26T11:37:54;99552.78;;;6.01;55.55
7157;BME280;3620;49.862;8.758;2023-02-26T11:40:27;99557.81;;;5.68;55.40
7157;BME280;3620;49.862;8.758;2023-02-26T11:42:59;99552.91;;;5.96;56.23
7157;BME280;3620;49.862;8.758;2023-02-26T11:45:27;99546.94;;;5.89;54.69
7157;BME280;3620;49.862;8.758;2023-02-26T11:47:58;99549.50;;;5.93;55.52
7157;BME280;3620;49.862;8.758;2023-02-26T11:50:28;99544.50;;;5.82;54.72
7157;BME280;3620;49.862;8.758;2023-02-26T11:53:03;99547.41;;;6.08;55.31
7157;BME280;3620;49.862;8.758;2023-02-26T11:55:35;99548.00;;;6.21;54.43
7157;BME280;3620;49.862;8.758;2023-02-26T11:58:09;99547.81;;;6.28;54.27
7157;BME280;3620;49.862;8.758;2023-02-26T12:00:40;99545.72;;;6.42;53.49
7157;BME280;3620;49.862;8.758;2023-02-26T12:03:19;99551.22;;;6.32;53.29
7157;BME280;3620;49.862;8.758;2023-02-26T12:05:46;99551.56;;;6.17;53.96
7157;BME280;3620;49.862;8.758;2023-02-26T12:08:17;99547.41;;;6.45;54.76
7157;BME280;3620;49.862;8.758;2023-02-26T12:10:51;99543.00;;;6.48;53.73
7157;BME280;3620;49.862;8.758;2023-02-26T12:13:26;99537.94;;;6.41;54.34
7157;BME280;3620;49.862;8.758;2023-02-26T12:16:01;99541.69;;;6.66;54.80
7157;BME280;3620;49.862;8.758;2023-02-26T12:18:44;99543.53;;;6.61;53.35
7157;BME280;3620;49.862;8.758;2023-02-26T12:21:27;99539.97;;;6.65;54.25
7157;BME280;3620;49.862;8.758;2023-02-26T12:24:18;99542.06;;;6.51;53.56
7157;BME280;3620;49.862;8.758;2023-02-26T12:26:53;99539.03;;;6.68;53.12
7157;BME280;3620;49.862;8.758;2023-02-26T12:29:39;99545.34;;;6.22;54.00
7157;BME280;3620;49.862;8.758;2023-02-26T12:32:27;99541.97;;;6.54;54.96
7157;BME280;3620;49.862;8.758;2023-02-26T12:38:07;99546.97;;;6.28;54.55
7157;BME280;3620;49.862;8.758;2023-02-26T12:40:44;99544.38;;;6.63;55.82
7157;BME280;3620;49.862;8.758;2023-02-26T12:43:24;99547.88;;;6.62;55.12
7157;BME280;3620;49.862;8.758;2023-02-26T12:46:02;99545.28;;;6.62;54.31
7157;BME280;3620;49.862;8.758;2023-02-26T12:51:41;99546.38;;;6.52;54.88
7157;BME280;3620;49.862;8.758;2023-02-26T12:54:48;99555.03;;;6.54;55.52
7157;BME280;3620;49.862;8.758;2023-02-26T12:57:38;99551.50;;;6.56;55.00
7157;BME280;3620;49.862;8.758;2023-02-26T13:00:25;99555.72;;;6.62;54.34
7157;BME280;3620;49.862;8.758;2023-02-26T13:06:21;99558.78;;;6.79;53.67
7157;BME280;3620;49.862;8.758;2023-02-26T13:08:58;99560.03;;;6.98;55.14
7157;BME280;3620;49.862;8.758;2023-02-26T13:11:39;99562.16;;;7.16;54.58
7157;BME280;3620;49.862;8.758;2023-02-26T13:14:20;99570.41;;;7.01;54.39
7157;BME280;3620;49.862;8.758;2023-02-26T13:17:00;99565.81;;;6.77;54.58
7157;BME280;3620;49.862;8.758;2023-02-26T13:19:34;99574.41;;;6.82;54.25
7157;BME280;3620;49.862;8.758;2023-02-26T13:22:11;99572.22;;;6.64;55.50
7157;BME280;3620;49.862;8.758;2023-02-26T13:24:42;99572.72;;;6.80;55.09
7157;BME280;3620;49.862;8.758;2023-02-26T13:27:13;99580.13;;;6.96;54.95
7157;BME280;3620;49.862;8.758;2023-02-26T13:29:44;99577.66;;;6.90;53.92
7157;BME280;3620;49.862;8.758;2023-02-26T13:32:16;99580.63;;;6.77;54.05
7157;BME280;3620;49.862;8.758;2023-02-26T13:34:47;99569.47;;;6.70;54.72
7157;BME280;3620;49.862;8.758;2023-02-26T13:37:22;99576.16;;;6.80;55.15
7157;BME280;3620;49.862;8.758;2023-02-26T13:39:56;99572.34;;;6.59;55.17
7157;BME280;3620;49.862;8.758;2023-02-26T13:42:32;99581.44;;;6.43;56.51
7157;BME280;3620;49.862;8.758;2023-02-26T13:45:21;99577.34;;;6.32;55.05
7157;BME280;3620;49.862;8.758;2023-02-26T13:48:02;99575.19;;;6.49;54.29
7157;BME280;3620;49.862;8.758;2023-02-26T13:50:42;99575.06;;;6.55;53.41
7157;BME280;3620;49.862;8.758;2023-02-26T13:53:34;99573.63;;;6.42;53.88
7157;BME280;3620;49.862;8.758;2023-02-26T13:56:07;99584.81;;;6.47;53.88
7157;BME280;3620;49.862;8.758;2023-02-26T13:58:41;99576.81;;;6.16;53.99
7157;BME280;3620;49.862;8.758;2023-02-26T14:01:12;99585.53;;;6.17;53.95